createdAt,value
2019-02-06T00:01:02.733Z,17.87
2019-02-06T00:03:31.169Z,18.27
2019-02-06T00:06:01.463Z,18.87
2019-02-06T00:08:30.106Z,17.97
2019-02-06T00:10:58.937Z,21.73
2019-02-06T00:13:27.973Z,24.67
2019-02-06T00:15:56.440Z,24.83
2019-02-06T00:18:24.897Z,27.67
2019-02-06T00:20:53.318Z,29.00
2019-02-06T00:23:21.727Z,30.20
2019-02-06T00:25:50.729Z,26.23
2019-02-06T00:28:19.288Z,29.47
2019-02-06T00:30:48.117Z,30.80
2019-02-06T00:33:16.524Z,32.60
2019-02-06T00:35:45.017Z,33.83
2019-02-06T00:38:13.390Z,33.60
2019-02-06T00:40:41.823Z,33.00
2019-02-06T00:43:10.317Z,35.13
2019-02-06T00:45:38.815Z,31.33
2019-02-06T00:48:07.359Z,31.40
2019-02-06T00:50:35.737Z,32.87
2019-02-06T00:53:04.259Z,33.30
2019-02-06T00:55:32.749Z,36.13
2019-02-06T00:58:01.272Z,33.77
2019-02-06T01:00:29.734Z,38.73
2019-02-06T01:02:59.134Z,35.80
2019-02-06T01:05:38.048Z,39.07
2019-02-06T01:07:57.799Z,35.27
2019-02-06T01:10:26.209Z,40.43
2019-02-06T01:12:54.791Z,38.13
2019-02-06T01:15:23.214Z,27.20
2019-02-06T01:17:51.605Z,39.50
2019-02-06T01:20:21.790Z,42.90
2019-02-06T01:22:50.311Z,40.03
2019-02-06T01:25:18.753Z,38.33
2019-02-06T01:27:47.170Z,35.20
2019-02-06T01:30:21.707Z,39.50
2019-02-06T01:32:50.145Z,37.90
2019-02-06T01:35:19.192Z,34.97
2019-02-06T01:37:47.724Z,36.13
2019-02-06T01:40:18.722Z,38.17
2019-02-06T01:42:47.170Z,37.00
2019-02-06T01:45:19.087Z,36.13
2019-02-06T01:47:47.584Z,38.07
2019-02-06T01:50:18.319Z,37.67
2019-02-06T01:52:46.874Z,34.33
2019-02-06T01:55:15.873Z,30.80
2019-02-06T01:57:44.483Z,36.63
2019-02-06T02:00:21.198Z,33.77
2019-02-06T02:02:49.630Z,38.87
2019-02-06T02:05:20.733Z,33.53
2019-02-06T02:07:50.423Z,39.57
2019-02-06T02:10:20.248Z,32.93
2019-02-06T02:12:48.962Z,37.00
2019-02-06T02:15:19.928Z,37.57
2019-02-06T02:17:48.361Z,39.07
2019-02-06T02:20:22.078Z,40.43
2019-02-06T02:22:50.666Z,41.33
2019-02-06T02:25:19.075Z,40.70
2019-02-06T02:27:47.635Z,40.80
2019-02-06T02:30:20.517Z,37.70
2019-02-06T02:32:49.256Z,41.63
2019-02-06T02:35:17.770Z,41.57
2019-02-06T02:37:46.242Z,41.83
2019-02-06T02:40:14.748Z,41.83
2019-02-06T02:42:44.541Z,43.23
2019-02-06T02:45:15.719Z,43.07
2019-02-06T02:47:44.840Z,35.40
2019-02-06T02:50:13.245Z,42.53
2019-02-06T02:52:43.658Z,35.30
2019-02-06T02:55:13.075Z,43.13
2019-02-06T02:57:41.520Z,44.13
2019-02-06T03:00:16.774Z,43.63
2019-02-06T03:02:59.202Z,44.27
2019-02-06T03:05:53.681Z,38.30
2019-02-06T03:08:01.248Z,42.30
2019-02-06T03:10:33.776Z,41.10
2019-02-06T03:13:19.078Z,40.47
2019-02-06T03:15:48.297Z,37.67
2019-02-06T03:18:17.030Z,40.27
2019-02-06T03:20:45.767Z,40.03
2019-02-06T03:23:14.613Z,41.60
2019-02-06T03:25:49.786Z,36.90
2019-02-06T03:28:17.133Z,39.10
2019-02-06T03:30:51.548Z,36.37
2019-02-06T03:33:24.463Z,37.00
2019-02-06T03:35:53.281Z,36.53
2019-02-06T03:38:23.932Z,33.63
2019-02-06T03:40:57.525Z,34.70
2019-02-06T03:43:33.860Z,34.20
2019-02-06T03:46:07.842Z,28.80
2019-02-06T03:48:38.366Z,32.70
2019-02-06T03:51:16.149Z,31.93
2019-02-06T03:53:48.157Z,34.60
2019-02-06T03:56:32.773Z,29.03
2019-02-06T03:59:05.856Z,30.90
2019-02-06T04:01:43.540Z,32.63
2019-02-06T04:04:14.041Z,36.67
2019-02-06T04:07:35.088Z,33.17
2019-02-06T04:10:15.881Z,31.93
2019-02-06T04:12:44.312Z,36.60
2019-02-06T04:18:33.783Z,34.70
2019-02-06T04:21:09.755Z,33.10
2019-02-06T04:23:54.266Z,27.50
2019-02-06T04:26:46.751Z,25.37
2019-02-06T04:35:26.494Z,34.63
2019-02-06T04:37:55.523Z,29.50
2019-02-06T04:40:32.915Z,32.60
2019-02-06T04:43:02.446Z,40.30
2019-02-06T04:45:44.854Z,37.70
2019-02-06T04:53:49.850Z,38.93
2019-02-06T04:56:18.550Z,39.90
2019-02-06T04:58:47.482Z,40.53
2019-02-06T05:04:11.790Z,36.27
2019-02-06T05:06:42.355Z,40.47
2019-02-06T05:09:13.012Z,36.93
2019-02-06T05:11:42.972Z,41.60
2019-02-06T05:14:18.928Z,39.00
2019-02-06T05:16:52.480Z,40.30
2019-02-06T05:19:25.442Z,34.47
2019-02-06T05:21:54.134Z,41.27
2019-02-06T05:24:22.740Z,43.00
2019-02-06T05:26:51.465Z,40.00
2019-02-06T05:29:22.047Z,42.80
2019-02-06T05:31:50.941Z,42.80
2019-02-06T05:34:19.985Z,43.43
2019-02-06T05:36:56.397Z,44.67
2019-02-06T05:39:24.868Z,42.63
2019-02-06T05:41:53.633Z,43.70
2019-02-06T05:44:23.888Z,41.13
2019-02-06T05:46:52.422Z,40.67
2019-02-06T05:49:24.449Z,45.17
2019-02-06T05:51:53.169Z,41.50
2019-02-06T05:54:25.273Z,46.00
2019-02-06T05:56:54.045Z,50.60
2019-02-06T05:59:27.016Z,45.40
2019-02-06T06:02:14.257Z,37.03
2019-02-06T06:04:30.435Z,46.33
2019-02-06T06:07:14.058Z,41.27
2019-02-06T06:09:50.118Z,47.80
2019-02-06T06:12:24.442Z,34.73
2019-02-06T06:14:53.188Z,33.63
2019-02-06T06:17:24.948Z,51.23
2019-02-06T06:20:01.047Z,45.57
2019-02-06T06:22:32.557Z,48.63
2019-02-06T06:25:01.644Z,27.43
2019-02-06T06:27:30.778Z,46.40
2019-02-06T06:29:59.446Z,45.33
2019-02-06T06:32:28.274Z,37.53
2019-02-06T06:34:57.080Z,47.63
2019-02-06T06:37:29.850Z,43.93
2019-02-06T06:39:58.655Z,33.77
2019-02-06T06:42:27.769Z,49.50
2019-02-06T06:44:56.574Z,48.77
2019-02-06T06:47:29.346Z,30.53
2019-02-06T06:49:58.092Z,50.37
2019-02-06T06:52:29.925Z,46.83
2019-02-06T06:54:58.428Z,49.93
2019-02-06T06:57:27.092Z,48.90
2019-02-06T06:59:55.761Z,48.47
2019-02-06T07:02:24.228Z,42.30
2019-02-06T07:04:52.884Z,45.00
2019-02-06T07:07:21.352Z,36.97
2019-02-06T07:09:50.032Z,37.93
2019-02-06T07:12:18.481Z,39.80
2019-02-06T07:14:48.436Z,42.43
2019-02-06T07:17:17.169Z,43.13
2019-02-06T07:19:45.808Z,41.50
2019-02-06T07:22:19.446Z,41.63
2019-02-06T07:24:48.018Z,42.40
2019-02-06T07:27:16.655Z,40.63
2019-02-06T07:29:45.385Z,41.87
2019-02-06T07:32:14.164Z,42.90
2019-02-06T07:34:42.833Z,40.43
2019-02-06T07:37:11.529Z,36.40
2019-02-06T07:39:40.111Z,40.13
2019-02-06T07:42:08.725Z,39.77
2019-02-06T07:44:37.312Z,40.57
2019-02-06T07:47:05.977Z,39.70
2019-02-06T07:49:36.219Z,38.07
2019-02-06T07:52:04.838Z,34.87
2019-02-06T07:54:33.420Z,39.73
2019-02-06T07:57:02.010Z,35.63
2019-02-06T07:59:33.291Z,24.90
2019-02-06T08:02:03.039Z,33.53
2019-02-06T08:04:41.459Z,27.87
2019-02-06T08:07:24.151Z,47.73
2019-02-06T08:09:52.591Z,41.40
2019-02-06T08:12:21.089Z,45.67
2019-02-06T08:14:49.987Z,39.93
2019-02-06T08:17:18.435Z,32.10
2019-02-06T08:19:46.997Z,38.60
2019-02-06T08:22:15.690Z,35.10
2019-02-06T08:24:49.792Z,32.87
2019-02-06T08:27:18.471Z,35.30
2019-02-06T08:29:47.300Z,34.37
2019-02-06T08:32:15.923Z,35.83
2019-02-06T08:34:44.397Z,34.37
2019-02-06T08:37:12.841Z,34.77
2019-02-06T08:39:41.477Z,30.93
2019-02-06T08:42:11.713Z,39.87
2019-02-06T08:44:40.351Z,56.87
2019-02-06T08:47:08.824Z,41.20
2019-02-06T08:49:37.498Z,53.53
2019-02-06T08:52:06.167Z,44.73
2019-02-06T08:54:34.790Z,31.10
2019-02-06T08:57:07.351Z,29.80
2019-02-06T08:59:38.006Z,31.13
2019-02-06T09:02:07.813Z,30.97
2019-02-06T09:04:36.540Z,36.77
2019-02-06T09:07:05.361Z,33.57
2019-02-06T09:09:33.951Z,32.40
2019-02-06T09:12:02.601Z,33.87
2019-02-06T09:14:32.767Z,31.77
2019-02-06T09:17:04.330Z,34.00
2019-02-06T09:19:47.729Z,32.97
2019-02-06T09:22:18.327Z,30.53
2019-02-06T09:24:47.189Z,32.87
2019-02-06T09:27:15.756Z,32.40
2019-02-06T09:29:50.243Z,33.20
2019-02-06T09:32:20.603Z,35.40
2019-02-06T09:34:50.287Z,30.37
2019-02-06T09:37:19.174Z,32.93
2019-02-06T09:39:47.576Z,33.93
2019-02-06T09:42:16.441Z,32.73
2019-02-06T09:44:44.993Z,32.83
2019-02-06T09:47:13.605Z,31.80
2019-02-06T09:49:42.072Z,30.37
2019-02-06T09:52:10.444Z,33.00
2019-02-06T09:54:38.881Z,32.33
2019-02-06T09:57:07.270Z,34.53
2019-02-06T09:59:35.919Z,33.30
2019-02-06T10:02:04.313Z,28.43
2019-02-06T10:04:32.685Z,28.33
2019-02-06T10:07:01.097Z,31.07
2019-02-06T10:09:29.623Z,31.13
2019-02-06T10:11:58.005Z,31.83
2019-02-06T10:14:26.437Z,30.40
2019-02-06T10:16:55.132Z,33.10
2019-02-06T10:19:23.529Z,28.53
2019-02-06T10:21:53.743Z,29.63
2019-02-06T10:24:22.104Z,28.90
2019-02-06T10:26:50.470Z,31.50
2019-02-06T10:29:18.926Z,28.57
2019-02-06T10:31:47.634Z,28.17
2019-02-06T10:34:16.059Z,33.03
2019-02-06T10:36:44.442Z,31.33
2019-02-06T10:39:12.885Z,30.90
2019-02-06T10:41:41.762Z,32.23
2019-02-06T10:44:10.112Z,34.30
2019-02-06T10:46:38.593Z,34.30
2019-02-06T10:49:07.176Z,32.67
2019-02-06T10:51:35.560Z,33.00
2019-02-06T10:54:04.063Z,33.17
2019-02-06T10:56:32.453Z,31.13
2019-02-06T10:59:01.009Z,33.97
2019-02-06T11:01:29.454Z,31.60
2019-02-06T11:03:57.926Z,36.63
2019-02-06T11:06:26.317Z,36.80
2019-02-06T11:08:54.718Z,32.10
2019-02-06T11:11:23.230Z,34.00
2019-02-06T11:13:51.674Z,31.73
2019-02-06T11:16:20.102Z,32.53
2019-02-06T11:18:48.492Z,25.93
2019-02-06T11:21:16.872Z,25.27
2019-02-06T11:23:50.251Z,27.80
2019-02-06T11:26:18.715Z,32.60
2019-02-06T11:28:47.138Z,36.83
2019-02-06T11:31:15.548Z,38.47
2019-02-06T11:33:43.928Z,35.97
2019-02-06T11:36:23.587Z,32.33
2019-02-06T11:38:42.495Z,33.97
2019-02-06T11:41:10.941Z,36.60
2019-02-06T11:43:39.447Z,38.97
2019-02-06T11:46:09.134Z,33.07
2019-02-06T11:48:37.810Z,37.17
2019-02-06T11:51:06.359Z,37.17
2019-02-06T11:53:34.806Z,34.00
2019-02-06T11:56:03.156Z,36.17
2019-02-06T11:58:31.557Z,35.20
2019-02-06T12:01:01.645Z,33.30
2019-02-06T12:03:30.094Z,35.63
2019-02-06T12:05:58.504Z,34.00
2019-02-06T12:08:27.205Z,33.73
2019-02-06T12:10:55.681Z,37.43
2019-02-06T12:13:24.139Z,33.33
2019-02-06T12:15:52.687Z,34.73
2019-02-06T12:18:21.239Z,34.80
2019-02-06T12:20:49.686Z,36.87
2019-02-06T12:23:18.115Z,35.07
2019-02-06T12:25:47.003Z,32.07
2019-02-06T12:28:15.395Z,32.20
2019-02-06T12:30:43.787Z,30.43
2019-02-06T12:33:12.261Z,34.10
2019-02-06T12:35:40.659Z,30.77
2019-02-06T12:38:09.021Z,30.43
2019-02-06T12:40:37.557Z,32.10
2019-02-06T12:43:10.357Z,27.10
2019-02-06T12:45:37.715Z,31.13
2019-02-06T12:48:06.570Z,29.43
2019-02-06T12:50:34.965Z,30.33
2019-02-06T12:53:03.403Z,28.90
2019-02-06T12:55:39.628Z,31.67
2019-02-06T12:58:08.766Z,33.47
2019-02-06T13:00:40.330Z,32.03
2019-02-06T13:03:08.789Z,32.77
2019-02-06T13:05:37.223Z,32.30
2019-02-06T13:08:05.905Z,34.70
2019-02-06T13:10:34.622Z,29.53
2019-02-06T13:13:03.093Z,28.47
2019-02-06T13:15:31.999Z,35.10
2019-02-06T13:18:00.365Z,37.43
2019-02-06T13:20:34.365Z,35.23
2019-02-06T13:23:02.755Z,34.50
2019-02-06T13:25:31.212Z,35.83
2019-02-06T13:27:59.722Z,34.40
2019-02-06T13:30:31.309Z,26.77
2019-02-06T13:32:59.729Z,31.30
2019-02-06T13:35:28.169Z,33.77
2019-02-06T13:37:56.558Z,34.00
2019-02-06T13:40:28.949Z,29.70
2019-02-06T13:42:58.197Z,33.17
2019-02-06T13:45:32.228Z,32.53
2019-02-06T13:48:00.673Z,29.40
2019-02-06T13:50:29.433Z,31.37
2019-02-06T13:52:57.814Z,31.73
2019-02-06T13:55:26.251Z,33.87
2019-02-06T13:57:54.689Z,29.17
2019-02-06T14:00:26.169Z,29.00
2019-02-06T14:02:54.533Z,31.40
2019-02-06T14:05:30.985Z,29.50
2019-02-06T14:08:08.065Z,26.27
2019-02-06T14:10:36.481Z,29.63
2019-02-06T14:13:05.093Z,32.93
2019-02-06T14:15:36.329Z,30.87
2019-02-06T14:18:04.995Z,30.53
2019-02-06T14:20:33.371Z,32.17
2019-02-06T14:23:05.151Z,30.13
2019-02-06T14:25:45.567Z,32.97
2019-02-06T14:28:31.619Z,34.03
2019-02-06T14:31:25.600Z,32.17
2019-02-06T14:34:15.229Z,33.67
2019-02-06T14:37:03.378Z,35.17
2019-02-06T14:39:34.982Z,33.73
2019-02-06T14:42:09.275Z,34.43
2019-02-06T14:44:57.331Z,34.60
2019-02-06T14:47:50.417Z,37.70
2019-02-06T14:50:27.910Z,36.17
2019-02-06T14:53:08.643Z,33.33
2019-02-06T14:55:56.719Z,34.77
2019-02-06T14:58:40.641Z,35.13
2019-02-06T15:01:21.456Z,35.47
2019-02-06T15:03:55.953Z,40.93
2019-02-06T15:09:46.242Z,34.67
2019-02-06T15:12:20.534Z,33.33
2019-02-06T15:15:03.399Z,33.83
2019-02-06T15:17:43.838Z,31.73
2019-02-06T15:20:21.483Z,32.67
2019-02-06T15:22:56.030Z,32.13
2019-02-06T15:25:44.003Z,27.20
2019-02-06T15:28:33.492Z,31.50
2019-02-06T15:31:44.180Z,33.00
2019-02-06T15:34:33.389Z,31.43
2019-02-06T15:37:24.244Z,32.97
2019-02-06T15:40:13.735Z,29.50
2019-02-06T15:42:51.071Z,30.40
2019-02-06T15:45:31.307Z,31.93
2019-02-06T15:48:11.823Z,33.10
2019-02-06T15:50:47.193Z,31.37
2019-02-06T15:53:30.767Z,29.40
2019-02-06T15:56:11.011Z,35.47
2019-02-06T15:59:14.743Z,31.27
2019-02-06T16:04:52.738Z,30.90
2019-02-06T16:07:45.813Z,32.83
2019-02-06T16:10:34.163Z,34.40
2019-02-06T16:13:08.576Z,35.13
2019-02-06T16:15:46.663Z,32.40
2019-02-06T16:18:30.147Z,33.87
2019-02-06T16:21:23.929Z,34.93
2019-02-06T16:23:58.649Z,35.03
2019-02-06T16:26:47.816Z,35.77
2019-02-06T16:29:41.841Z,35.97
2019-02-06T16:32:29.639Z,33.27
2019-02-06T16:35:04.217Z,33.37
2019-02-06T16:38:02.652Z,34.83
2019-02-06T16:40:46.311Z,34.90
2019-02-06T16:43:30.073Z,34.77
2019-02-06T16:46:18.220Z,33.73
2019-02-06T16:51:35.857Z,36.47
2019-02-06T16:54:28.634Z,36.77
2019-02-06T16:57:18.652Z,33.83
2019-02-06T17:00:14.707Z,33.67
2019-02-06T17:03:20.949Z,34.73
2019-02-06T17:06:10.529Z,35.80
2019-02-06T17:09:10.940Z,39.60
2019-02-06T17:11:48.487Z,38.73
2019-02-06T17:14:20.203Z,39.13
2019-02-06T17:16:57.514Z,52.23
2019-02-06T17:21:26.355Z,41.97
2019-02-06T17:22:43.005Z,38.67
2019-02-06T17:28:17.841Z,39.90
2019-02-06T17:31:12.000Z,39.57
2019-02-06T17:34:02.531Z,43.13
2019-02-06T17:39:40.107Z,42.67
2019-02-06T17:42:20.753Z,41.23
2019-02-06T17:44:57.997Z,41.60
2019-02-06T17:47:32.518Z,41.37
2019-02-06T17:50:09.783Z,42.23
2019-02-06T17:52:50.263Z,45.27
2019-02-06T17:55:20.127Z,40.73
2019-02-06T17:57:50.368Z,41.27
2019-02-06T18:00:25.027Z,40.40
2019-02-06T18:02:53.648Z,38.03
2019-02-06T18:05:23.657Z,40.00
2019-02-06T18:07:52.092Z,39.83
2019-02-06T18:10:23.839Z,39.00
2019-02-06T18:12:52.437Z,40.87
2019-02-06T18:15:20.963Z,37.33
2019-02-06T18:17:49.493Z,37.17
2019-02-06T18:20:18.664Z,38.47
2019-02-06T18:22:48.114Z,39.37
2019-02-06T18:25:16.976Z,39.87
2019-02-06T18:27:49.685Z,35.43
2019-02-06T18:30:24.003Z,40.63
2019-02-06T18:32:53.726Z,41.43
2019-02-06T18:35:22.211Z,37.60
2019-02-06T18:37:51.924Z,39.57
2019-02-06T18:40:24.731Z,38.80
2019-02-06T18:42:53.298Z,35.97
2019-02-06T18:45:24.149Z,38.37
2019-02-06T18:47:54.742Z,37.67
2019-02-06T18:50:25.927Z,32.43
2019-02-06T18:52:54.513Z,39.37
2019-02-06T18:55:23.174Z,40.87
2019-02-06T19:00:45.955Z,38.03
2019-02-06T19:03:27.216Z,37.33
2019-02-06T19:05:55.807Z,35.77
2019-02-06T19:08:24.345Z,35.90
2019-02-06T19:10:53.306Z,33.60
2019-02-06T19:13:25.516Z,31.20
2019-02-06T19:15:56.443Z,36.73
2019-02-06T19:18:26.005Z,35.63
2019-02-06T19:20:54.614Z,38.73
2019-02-06T19:23:23.170Z,37.00
2019-02-06T19:25:51.698Z,35.07
2019-02-06T19:28:23.024Z,38.73
2019-02-06T19:30:51.530Z,38.77
2019-02-06T19:33:20.034Z,32.93
2019-02-06T19:35:50.028Z,34.37
2019-02-06T19:38:18.506Z,35.57
2019-02-06T19:40:47.084Z,34.90
2019-02-06T19:43:16.195Z,33.73
2019-02-06T19:45:46.103Z,31.53
2019-02-06T19:48:17.689Z,31.67
2019-02-06T19:50:46.704Z,33.27
2019-02-06T19:53:15.155Z,34.87
2019-02-06T19:55:43.621Z,34.73
2019-02-06T19:58:12.068Z,32.67
2019-02-06T20:00:40.458Z,32.93
2019-02-06T20:03:09.235Z,35.00
2019-02-06T20:05:37.706Z,31.80
2019-02-06T20:08:07.409Z,29.23
2019-02-06T20:10:39.119Z,32.53
2019-02-06T20:13:11.379Z,32.93
2019-02-06T20:15:37.714Z,34.73
2019-02-06T20:18:06.118Z,33.97
2019-02-06T20:20:35.081Z,31.67
2019-02-06T20:23:03.611Z,34.93
2019-02-06T20:25:32.058Z,35.03
2019-02-06T20:28:03.556Z,35.33
2019-02-06T20:30:32.632Z,34.30
2019-02-06T20:33:10.176Z,32.00
2019-02-06T20:35:38.962Z,33.43
2019-02-06T20:38:07.402Z,30.17
2019-02-06T20:40:41.526Z,31.60
2019-02-06T20:43:21.390Z,30.13
2019-02-06T20:45:42.180Z,32.43
2019-02-06T20:48:12.255Z,41.13
2019-02-06T20:50:41.259Z,30.10
2019-02-06T20:53:09.752Z,29.93
2019-02-06T20:55:38.165Z,29.47
2019-02-06T20:58:06.537Z,27.57
2019-02-06T21:03:32.290Z,29.17
2019-02-06T21:06:00.905Z,30.07
2019-02-06T21:08:29.382Z,30.03
2019-02-06T21:10:57.895Z,30.50
2019-02-06T21:13:32.706Z,32.80
2019-02-06T21:15:56.436Z,30.57
2019-02-06T21:18:25.132Z,30.27
2019-02-06T21:20:53.514Z,32.27
2019-02-06T21:23:22.455Z,30.07
2019-02-06T21:25:50.951Z,30.50
2019-02-06T21:28:19.368Z,30.43
2019-02-06T21:30:47.873Z,28.17
2019-02-06T21:33:16.327Z,29.43
2019-02-06T21:35:44.689Z,29.43
2019-02-06T21:38:13.131Z,31.63
2019-02-06T21:40:41.608Z,25.07
2019-02-06T21:43:09.928Z,28.43
2019-02-06T21:45:38.306Z,29.13
2019-02-06T21:48:06.791Z,29.80
2019-02-06T21:50:35.562Z,26.80
2019-02-06T21:53:03.940Z,28.90
2019-02-06T21:55:32.442Z,27.50
2019-02-06T21:58:00.894Z,27.70
2019-02-06T22:00:32.247Z,27.10
2019-02-06T22:03:00.733Z,28.37
2019-02-06T22:05:29.322Z,27.67
2019-02-06T22:07:57.802Z,29.43
2019-02-06T22:10:26.322Z,28.03
2019-02-06T22:12:56.510Z,28.50
2019-02-06T22:15:27.438Z,26.30
2019-02-06T22:17:55.861Z,27.17
2019-02-06T22:20:24.892Z,29.30
2019-02-06T22:22:53.256Z,20.43
2019-02-06T22:25:21.830Z,29.33
2019-02-06T22:27:50.804Z,28.80
2019-02-06T22:30:28.381Z,27.73
2019-02-06T22:32:56.806Z,27.93
2019-02-06T22:35:25.415Z,30.17
2019-02-06T22:37:53.828Z,27.93
2019-02-06T22:40:24.141Z,29.33
2019-02-06T22:42:52.581Z,27.37
2019-02-06T22:45:22.720Z,26.93
2019-02-06T22:47:51.225Z,24.70
2019-02-06T22:50:22.051Z,27.47
2019-02-06T22:52:50.638Z,25.27
2019-02-06T22:55:19.104Z,24.07
2019-02-06T22:57:48.135Z,24.87
2019-02-06T23:00:47.873Z,25.23
2019-02-06T23:03:22.861Z,22.73
2019-02-06T23:05:51.608Z,24.30
2019-02-06T23:08:20.382Z,21.70
2019-02-06T23:10:49.208Z,24.33
2019-02-06T23:13:18.408Z,25.23
2019-02-06T23:15:48.804Z,18.13
2019-02-06T23:18:18.102Z,23.00
2019-02-06T23:20:46.956Z,24.47
2019-02-06T23:23:15.800Z,23.03
2019-02-06T23:25:44.587Z,22.23
2019-02-06T23:28:13.702Z,23.37
2019-02-06T23:30:42.500Z,22.20
2019-02-06T23:33:11.459Z,21.23
2019-02-06T23:35:40.622Z,22.90
2019-02-06T23:38:37.272Z,23.97
2019-02-06T23:41:10.677Z,24.53
2019-02-06T23:43:43.299Z,24.27
2019-02-06T23:46:14.406Z,24.60
2019-02-06T23:48:43.621Z,24.47
2019-02-06T23:51:20.492Z,25.07
2019-02-06T23:53:52.414Z,21.20
2019-02-06T23:56:23.151Z,23.60
2019-02-06T23:58:51.969Z,24.57
